Česky Dansk Deutsch English Español Suomi Français Magyar Italiano Nederlands norsk Polski Português svenska Türkçe

 

Het Weer

Rheine-Bentlage (Duitsland)

16:20, 21 augustus 2016 (GMT)

NWNNE
WE
SWSSE
Home            
Rheine-Bentlage Hopsten Nordhorn Muenster / Osnabrueck Twenthe Meppen-Mil Diepholz Guetersloh Dortmund / Wickede Kalkar Essen Deelen Groningen Airport Eelde Paderborn / Lippstadt Laarbruch Niederrhein Bueckeburg Duesseldorf Lemwerder Bremen Lelystad Monchengladbach Volkel

Om een weerknop op uw website of weblog te plaatsen, copieer onderstaande code en plak die in uw pagina. In het eerste vakje staat HTML-code, in het tweede vakje UBB-code.


Add to Google

Details

Wind speed:3 bf, 7 kn, 3.6 m/s, 8.1 miles/h, 13.0 km/h
Wind direction:WSW, 240°
Het Weer:moderate
moderate
moderate
moderate
Temperature:18°C, 64°F
Dew-point:14°C, 57°F
Atmospheric pressure:1017 hPa, 762.8 mmHg, 30.03 inHg, 1.004 atm
Relative humidity:77.5 %
METAR:ETHE 211620Z AUTO 24007KT 18/14 Q1017

Snelkoppelingen

Actuele weersinformatie van de hele wereld. Voeg locaties toe met het plus (+) symbool. Deze snelkoppelingen kunnen worden toegevoegd aan Google.

Lid van de Technetium groep

website free tracking
StatCounter NetStat W3C Validator

24-11-2020 10:26:23
astro.technetium.be money.technetium.be phote.technetium.be tafeltennistafel.technetium.be www.ligfiets.net